createdAt,value
2023-02-20T00:05:13.493Z,2.8
2023-02-20T00:20:55.736Z,2.8
2023-02-20T00:36:38.361Z,3.5
2023-02-20T00:52:21.353Z,3.8
2023-02-20T01:08:03.631Z,3.3
2023-02-20T01:23:46.570Z,4.1
2023-02-20T01:39:28.824Z,3.6
2023-02-20T01:55:11.663Z,3.7
2023-02-20T02:10:54.497Z,4.19
2023-02-20T02:26:36.940Z,4
2023-02-20T02:42:19.538Z,3.8
2023-02-20T02:58:02.524Z,4.3
2023-02-20T03:13:44.742Z,4.8
2023-02-20T03:29:27.313Z,4.6
2023-02-20T03:45:09.673Z,5.1
2023-02-20T04:00:52.740Z,5.3
2023-02-20T04:16:35.744Z,5.6
2023-02-20T04:32:17.910Z,5.9
2023-02-20T04:48:00.291Z,5.8
2023-02-20T05:03:42.883Z,6.1
2023-02-20T05:19:25.386Z,6.3
2023-02-20T05:35:07.970Z,6.1
2023-02-20T05:50:50.434Z,6.7
2023-02-20T06:06:33.547Z,6.8
2023-02-20T06:22:16.119Z,7
2023-02-20T06:37:59.083Z,7.5
2023-02-20T06:53:41.242Z,8
2023-02-20T07:09:24.418Z,8.3
2023-02-20T07:25:07.318Z,8.39
2023-02-20T07:56:32.943Z,6.9
2023-02-20T08:12:15.098Z,7.4
2023-02-20T08:27:58.007Z,8.7
2023-02-20T08:59:23.255Z,6.2
2023-02-20T09:30:48.226Z,4.69
2023-02-20T09:46:37.996Z,3.7
2023-02-20T10:02:13.888Z,3.6
2023-02-20T10:49:21.556Z,2.6
2023-02-20T11:05:04.226Z,2.9
2023-02-20T11:20:53.802Z,3
2023-02-20T11:36:29.187Z,3
2023-02-20T12:07:53.572Z,3.6
2023-02-20T12:23:50.155Z,4.19
2023-02-20T12:39:18.864Z,10
2023-02-20T12:55:01.149Z,5
2023-02-20T13:10:43.293Z,6.2
2023-02-20T13:26:40.015Z,7.8
2023-02-20T13:42:08.139Z,10.3
2023-02-20T13:57:57.860Z,11.4
2023-02-20T14:13:40.224Z,11.1
2023-02-20T14:44:57.695Z,8.6
2023-02-20T15:00:40.827Z,7.4
2023-02-20T15:16:30.657Z,6.9
2023-02-20T15:32:13.083Z,6.7
2023-02-20T15:47:55.596Z,6.3
2023-02-20T15:48:49.920Z,6.8
2023-02-20T16:20:14.526Z,6.2
2023-02-20T16:35:57.384Z,6.1
2023-02-20T17:07:16.471Z,6
2023-02-20T17:22:58.848Z,6.3
2023-02-20T17:38:41.057Z,6.1
2023-02-20T17:54:31.114Z,5.5
2023-02-20T18:10:21.144Z,7
2023-02-20T18:25:56.443Z,7.2
2023-02-20T18:41:32.108Z,7.4
2023-02-20T18:57:15.030Z,8.39
2023-02-20T19:12:57.683Z,9.5
2023-02-20T19:28:40.620Z,9.8
2023-02-20T19:44:23.114Z,9.2
2023-02-20T20:00:05.764Z,7.9
2023-02-20T20:15:48.705Z,8.1
2023-02-20T20:31:31.467Z,8
2023-02-20T20:47:14.232Z,7.3
2023-02-20T21:02:57.150Z,7.4
2023-02-20T21:34:22.170Z,6.1
2023-02-20T21:50:05.214Z,5.8
2023-02-20T22:21:30.121Z,5.2
2023-02-20T22:37:12.835Z,5.7
2023-02-20T22:52:55.579Z,5.1
2023-02-20T23:08:38.329Z,5.6
2023-02-20T23:24:21.370Z,5.3
2023-02-20T23:40:04.255Z,5.4
2023-02-20T23:55:46.821Z,5.8
